createdAt,value
2018-01-21T00:00:29.532Z,93.32
2018-01-21T00:02:57.901Z,93.30
2018-01-21T00:05:26.253Z,93.20
2018-01-21T00:07:55.408Z,93.16
2018-01-21T00:10:23.862Z,93.17
2018-01-21T00:12:52.232Z,92.95
2018-01-21T00:15:21.535Z,92.91
2018-01-21T00:17:49.910Z,93.00
2018-01-21T00:20:18.264Z,92.97
2018-01-21T00:22:47.417Z,92.90
2018-01-21T00:25:15.837Z,93.09
2018-01-21T00:27:44.201Z,93.37
2018-01-21T00:30:12.608Z,93.42
2018-01-21T00:32:40.970Z,93.32
2018-01-21T00:35:10.197Z,93.30
2018-01-21T00:37:38.587Z,93.31
2018-01-21T00:40:06.940Z,93.24
2018-01-21T00:42:35.316Z,93.01
2018-01-21T00:45:03.738Z,92.86
2018-01-21T00:47:32.966Z,92.67
2018-01-21T00:50:02.187Z,92.53
2018-01-21T00:52:30.548Z,92.44
2018-01-21T00:54:58.901Z,92.45
2018-01-21T00:57:27.338Z,92.28
2018-01-21T00:59:55.796Z,92.29
2018-01-21T01:02:24.221Z,92.35
2018-01-21T01:04:52.616Z,92.27
2018-01-21T01:07:20.976Z,92.14
2018-01-21T01:09:49.393Z,91.92
2018-01-21T01:12:18.032Z,91.77
2018-01-21T01:14:46.398Z,91.66
2018-01-21T01:17:14.820Z,91.77
2018-01-21T01:19:43.255Z,91.73
2018-01-21T01:22:11.618Z,91.71
2018-01-21T01:24:40.765Z,91.68
2018-01-21T01:27:09.179Z,91.53
2018-01-21T01:29:38.387Z,91.58
2018-01-21T01:32:07.590Z,91.69
2018-01-21T01:34:36.823Z,91.79
2018-01-21T01:37:05.193Z,91.92
2018-01-21T01:39:33.552Z,91.88
2018-01-21T01:42:02.755Z,92.03
2018-01-21T01:44:31.150Z,92.16
2018-01-21T01:46:59.566Z,92.04
2018-01-21T01:49:27.969Z,92.09
2018-01-21T01:51:56.327Z,92.32
2018-01-21T01:54:24.677Z,92.21
2018-01-21T01:56:53.123Z,92.11
2018-01-21T01:59:21.492Z,91.76
2018-01-21T02:01:50.676Z,91.73
2018-01-21T02:04:19.914Z,91.78
2018-01-21T02:06:48.291Z,91.82
2018-01-21T02:09:16.653Z,92.30
2018-01-21T02:11:45.862Z,92.68
2018-01-21T02:14:14.291Z,92.87
2018-01-21T02:16:42.667Z,92.86
2018-01-21T02:19:11.055Z,92.91
2018-01-21T02:21:39.408Z,92.91
2018-01-21T02:24:07.811Z,92.81
2018-01-21T02:26:36.187Z,92.67
2018-01-21T02:29:04.543Z,92.49
2018-01-21T02:31:32.891Z,92.57
2018-01-21T02:34:01.260Z,92.79
2018-01-21T02:36:29.642Z,92.99
2018-01-21T02:38:58.822Z,93.10
2018-01-21T02:41:28.062Z,93.11
2018-01-21T02:43:56.489Z,93.21
2018-01-21T02:46:24.863Z,93.29
2018-01-21T02:48:53.275Z,93.32
2018-01-21T02:51:23.110Z,93.37
2018-01-21T02:53:51.470Z,93.45
2018-01-21T02:56:20.847Z,93.51
2018-01-21T02:58:49.275Z,93.53
2018-01-21T03:01:17.684Z,93.57
2018-01-21T03:03:46.115Z,93.78
2018-01-21T03:06:14.554Z,93.85
2018-01-21T03:08:42.922Z,94.04
2018-01-21T03:11:11.292Z,94.28
2018-01-21T03:13:40.495Z,94.23
2018-01-21T03:16:08.912Z,94.25
2018-01-21T03:18:38.044Z,94.11
2018-01-21T03:21:06.491Z,94.03
2018-01-21T03:23:35.620Z,94.22
2018-01-21T03:26:04.054Z,94.48
2018-01-21T03:28:32.511Z,94.50
2018-01-21T03:31:00.935Z,94.81
2018-01-21T03:33:29.312Z,95.31
2018-01-21T03:35:58.508Z,95.54
2018-01-21T03:38:27.735Z,95.50
2018-01-21T03:40:56.184Z,95.36
2018-01-21T03:43:25.309Z,95.29
2018-01-21T03:45:53.659Z,95.22
2018-01-21T03:48:23.560Z,95.17
2018-01-21T03:50:52.751Z,95.20
2018-01-21T03:53:21.222Z,95.09
2018-01-21T03:55:49.674Z,95.03
2018-01-21T03:58:18.040Z,95.07
2018-01-21T04:00:46.463Z,95.16
2018-01-21T04:03:14.871Z,95.17
2018-01-21T04:05:44.115Z,95.10
2018-01-21T04:08:12.461Z,95.21
2018-01-21T04:10:41.613Z,95.28
2018-01-21T04:13:10.027Z,95.24
2018-01-21T04:15:39.217Z,95.21
2018-01-21T04:18:08.447Z,95.06
2018-01-21T04:20:36.808Z,94.93
2018-01-21T04:23:05.987Z,94.86
2018-01-21T04:25:35.223Z,94.77
2018-01-21T04:28:03.594Z,94.52
2018-01-21T04:30:31.962Z,94.64
2018-01-21T04:33:01.116Z,94.54
2018-01-21T04:35:29.573Z,94.39
2018-01-21T04:37:57.920Z,94.37
2018-01-21T04:40:27.074Z,94.34
2018-01-21T04:42:55.425Z,94.39
2018-01-21T04:45:23.847Z,94.34
2018-01-21T04:47:52.577Z,94.37
2018-01-21T04:50:21.001Z,94.26
2018-01-21T04:52:49.369Z,94.50
2018-01-21T04:55:17.804Z,94.37
2018-01-21T04:57:46.184Z,94.24
2018-01-21T05:00:14.568Z,94.24
2018-01-21T05:02:42.933Z,94.20
2018-01-21T05:05:12.141Z,94.14
2018-01-21T05:07:40.563Z,93.98
2018-01-21T05:10:08.940Z,93.93
2018-01-21T05:12:38.083Z,94.17
2018-01-21T05:15:07.262Z,94.38
2018-01-21T05:17:35.629Z,94.37
2018-01-21T05:20:04.066Z,94.22
2018-01-21T05:22:32.490Z,94.23
2018-01-21T05:25:00.858Z,94.22
2018-01-21T05:27:29.227Z,94.26
2018-01-21T05:29:57.589Z,94.09
2018-01-21T05:32:26.031Z,94.14
2018-01-21T05:34:55.224Z,94.15
2018-01-21T05:37:24.349Z,94.07
2018-01-21T05:39:52.784Z,93.89
2018-01-21T05:42:21.238Z,93.79
2018-01-21T05:44:49.627Z,93.74
2018-01-21T05:47:17.981Z,93.66
2018-01-21T05:49:46.369Z,93.55
2018-01-21T05:52:14.732Z,93.48
2018-01-21T05:54:43.129Z,93.51
2018-01-21T05:57:11.558Z,93.56
2018-01-21T05:59:40.697Z,93.64
2018-01-21T06:02:09.103Z,93.63
2018-01-21T06:04:37.487Z,93.51
2018-01-21T06:07:05.910Z,93.66
2018-01-21T06:09:34.378Z,93.54
2018-01-21T06:12:03.512Z,93.62
2018-01-21T06:14:31.853Z,93.59
2018-01-21T06:17:01.181Z,93.54
2018-01-21T06:19:29.608Z,93.82
2018-01-21T06:21:58.038Z,93.95
2018-01-21T06:24:26.491Z,94.02
2018-01-21T06:26:54.928Z,94.28
2018-01-21T06:29:23.296Z,94.24
2018-01-21T06:31:51.805Z,94.15
2018-01-21T06:34:20.150Z,94.32
2018-01-21T06:36:48.518Z,94.40
2018-01-21T06:39:16.888Z,94.62
2018-01-21T06:41:45.339Z,94.76
2018-01-21T06:44:14.540Z,94.83
2018-01-21T06:46:43.743Z,94.72
2018-01-21T06:49:12.898Z,94.47
2018-01-21T06:51:41.252Z,94.40
2018-01-21T06:54:09.679Z,94.30
2018-01-21T06:56:38.143Z,94.23
2018-01-21T06:59:06.509Z,94.07
2018-01-21T07:01:34.865Z,93.87
2018-01-21T07:04:03.245Z,93.74
2018-01-21T07:06:31.671Z,93.69
2018-01-21T07:09:00.099Z,93.57
2018-01-21T07:11:28.553Z,93.70
2018-01-21T07:13:57.762Z,94.06
2018-01-21T07:16:26.202Z,93.96
2018-01-21T07:18:54.577Z,93.87
2018-01-21T07:21:23.026Z,93.76
2018-01-21T07:23:51.393Z,93.77
2018-01-21T07:26:19.820Z,93.94
2018-01-21T07:28:48.242Z,93.63
2018-01-21T07:31:17.372Z,93.55
2018-01-21T07:33:45.742Z,93.53
2018-01-21T07:36:14.128Z,93.34
2018-01-21T07:38:42.560Z,93.40
2018-01-21T07:41:11.764Z,93.63
2018-01-21T07:43:40.956Z,93.85
2018-01-21T07:46:10.080Z,93.68
2018-01-21T07:48:38.432Z,93.70
2018-01-21T07:51:07.650Z,94.05
2018-01-21T07:53:36.012Z,93.90
2018-01-21T07:56:04.372Z,94.16
2018-01-21T07:58:32.825Z,94.28
2018-01-21T08:01:01.208Z,94.28
2018-01-21T08:03:29.564Z,94.15
2018-01-21T08:05:57.995Z,94.33
2018-01-21T08:08:26.427Z,94.54
2018-01-21T08:10:54.875Z,94.38
2018-01-21T08:13:24.012Z,94.20
2018-01-21T08:15:52.435Z,94.30
2018-01-21T08:18:21.736Z,94.37
2018-01-21T08:20:50.089Z,94.49
2018-01-21T08:23:18.518Z,94.67
2018-01-21T08:25:46.896Z,94.91
2018-01-21T08:28:15.255Z,94.98
2018-01-21T08:30:43.640Z,94.96
2018-01-21T08:33:12.829Z,94.73
2018-01-21T08:35:47.352Z,94.43
2018-01-21T08:38:21.956Z,94.22
2018-01-21T08:40:55.909Z,93.64
2018-01-21T08:43:24.383Z,93.00
2018-01-21T08:45:52.867Z,92.74
2018-01-21T08:48:21.327Z,92.63
2018-01-21T08:50:50.494Z,92.52
2018-01-21T08:53:18.915Z,92.74
2018-01-21T08:55:48.062Z,92.79
2018-01-21T08:58:16.516Z,93.51
2018-01-21T09:00:44.887Z,93.51
2018-01-21T09:03:13.249Z,93.03
2018-01-21T09:05:42.478Z,92.60
2018-01-21T09:08:10.899Z,92.36
2018-01-21T09:10:39.311Z,92.07
2018-01-21T09:13:07.773Z,91.40
2018-01-21T09:15:36.205Z,91.40
2018-01-21T09:18:04.625Z,91.87
2018-01-21T09:20:33.032Z,92.60
2018-01-21T09:23:02.219Z,92.37
2018-01-21T09:25:31.423Z,91.79
2018-01-21T09:28:00.639Z,91.36
2018-01-21T09:30:29.159Z,89.70
2018-01-21T09:32:57.620Z,88.60
2018-01-21T09:35:26.048Z,87.52
2018-01-21T09:37:54.445Z,85.60
2018-01-21T09:40:23.649Z,83.28
2018-01-21T09:42:52.071Z,81.79
2018-01-21T09:45:20.548Z,79.86
2018-01-21T09:47:49.888Z,79.57
2018-01-21T09:50:19.238Z,80.73
2018-01-21T09:52:47.896Z,81.52
2018-01-21T09:55:16.327Z,81.72
2018-01-21T09:57:44.744Z,83.19
2018-01-21T10:00:13.204Z,84.13
2018-01-21T10:02:41.642Z,84.51
2018-01-21T10:05:10.072Z,85.81
2018-01-21T10:07:38.473Z,85.26
2018-01-21T10:10:07.695Z,83.90
2018-01-21T10:12:36.133Z,82.47
2018-01-21T10:15:04.497Z,81.90
2018-01-21T10:17:32.900Z,81.55
2018-01-21T10:20:02.083Z,83.20
2018-01-21T10:22:30.553Z,84.01
2018-01-21T10:24:59.015Z,84.31
2018-01-21T10:27:27.509Z,83.89
2018-01-21T10:29:55.963Z,83.94
2018-01-21T10:32:24.337Z,84.18
2018-01-21T10:34:52.725Z,83.80
2018-01-21T10:37:21.126Z,83.15
2018-01-21T10:39:49.485Z,83.32
2018-01-21T10:42:17.848Z,84.08
2018-01-21T10:44:46.591Z,84.97
2018-01-21T10:47:15.019Z,85.09
2018-01-21T10:49:43.390Z,84.77
2018-01-21T10:52:11.848Z,84.74
2018-01-21T10:54:40.978Z,85.79
2018-01-21T10:57:09.425Z,85.95
2018-01-21T10:59:38.669Z,85.99
2018-01-21T11:02:07.085Z,84.63
2018-01-21T11:04:35.493Z,85.36
2018-01-21T11:07:04.685Z,86.58
2018-01-21T11:09:33.136Z,87.04
2018-01-21T11:12:01.536Z,86.77
2018-01-21T11:14:30.739Z,86.01
2018-01-21T11:16:59.983Z,86.14
2018-01-21T11:19:28.389Z,87.59
2018-01-21T11:21:56.760Z,88.56
2018-01-21T11:24:25.221Z,88.05
2018-01-21T11:26:54.374Z,86.05
2018-01-21T11:29:23.837Z,85.37
2018-01-21T11:31:52.290Z,83.37
2018-01-21T11:34:20.692Z,83.05
2018-01-21T11:36:49.163Z,82.30
2018-01-21T11:39:17.536Z,82.85
2018-01-21T11:41:45.940Z,82.57
2018-01-21T11:44:14.401Z,82.76
2018-01-21T11:46:42.835Z,84.66
2018-01-21T11:49:12.047Z,85.83
2018-01-21T11:51:40.429Z,86.51
2018-01-21T11:54:08.806Z,86.62
2018-01-21T11:56:37.168Z,87.45
2018-01-21T11:59:06.367Z,86.24
2018-01-21T12:01:35.567Z,85.41
2018-01-21T12:04:04.733Z,85.35
2018-01-21T12:06:33.090Z,83.97
2018-01-21T12:09:01.452Z,84.79
2018-01-21T12:11:29.878Z,85.92
2018-01-21T12:13:58.296Z,85.21
2018-01-21T12:16:26.669Z,86.27
2018-01-21T12:18:55.895Z,87.24
2018-01-21T12:21:24.334Z,87.41
2018-01-21T12:23:53.537Z,85.69
2018-01-21T12:26:22.925Z,86.15
2018-01-21T12:28:52.082Z,87.00
2018-01-21T12:31:20.502Z,87.51
2018-01-21T12:33:49.731Z,87.58
2018-01-21T12:36:18.117Z,88.43
2018-01-21T12:38:46.542Z,87.92
2018-01-21T12:41:14.978Z,87.18
2018-01-21T12:43:43.407Z,89.17
2018-01-21T12:46:11.800Z,88.43
2018-01-21T12:48:40.241Z,88.28
2018-01-21T12:51:08.703Z,88.07
2018-01-21T12:53:37.135Z,87.97
2018-01-21T12:56:05.506Z,88.59
2018-01-21T12:58:33.949Z,89.25
2018-01-21T13:01:02.320Z,90.14
2018-01-21T13:03:30.680Z,90.14
2018-01-21T13:05:59.079Z,89.83
2018-01-21T13:08:27.509Z,89.25
2018-01-21T13:10:55.951Z,89.12
2018-01-21T13:13:24.356Z,88.65
2018-01-21T13:15:52.722Z,88.70
2018-01-21T13:18:21.195Z,87.97
2018-01-21T13:20:49.710Z,88.16
2018-01-21T13:23:18.093Z,88.71
2018-01-21T13:25:46.460Z,88.13
2018-01-21T13:28:14.916Z,87.98
2018-01-21T13:30:43.344Z,87.70
2018-01-21T13:33:12.480Z,87.52
2018-01-21T13:35:40.881Z,88.09
2018-01-21T13:38:09.321Z,88.22
2018-01-21T13:40:37.688Z,88.08
2018-01-21T13:43:06.867Z,87.98
2018-01-21T13:45:35.232Z,87.88
2018-01-21T13:48:03.593Z,87.46
2018-01-21T13:50:32.055Z,86.99
2018-01-21T13:53:00.426Z,87.50
2018-01-21T13:55:28.879Z,88.08
2018-01-21T13:57:58.005Z,87.77
2018-01-21T14:00:26.430Z,87.42
2018-01-21T14:02:54.813Z,87.37
2018-01-21T14:05:23.180Z,87.66
2018-01-21T14:07:51.635Z,88.28
2018-01-21T14:10:20.010Z,87.97
2018-01-21T14:12:48.373Z,87.40
2018-01-21T14:15:16.816Z,88.09
2018-01-21T14:17:45.964Z,88.78
2018-01-21T14:20:14.391Z,88.20
2018-01-21T14:22:43.607Z,88.16
2018-01-21T14:25:12.792Z,88.07
2018-01-21T14:27:42.013Z,87.89
2018-01-21T14:30:10.405Z,88.67
2018-01-21T14:32:38.776Z,88.73
2018-01-21T14:35:07.160Z,88.90
2018-01-21T14:37:35.516Z,89.23
2018-01-21T14:40:04.707Z,89.66
2018-01-21T14:42:33.933Z,89.29
2018-01-21T14:45:02.306Z,89.03
2018-01-21T14:47:30.690Z,89.28
2018-01-21T14:49:59.062Z,89.97
2018-01-21T14:52:27.492Z,89.65
2018-01-21T14:54:55.968Z,89.78
2018-01-21T14:57:24.332Z,89.73
2018-01-21T14:59:52.688Z,90.09
2018-01-21T15:02:21.119Z,90.88
2018-01-21T15:04:49.508Z,90.32
2018-01-21T15:07:17.877Z,90.21
2018-01-21T15:09:46.302Z,90.28
2018-01-21T15:12:14.747Z,90.71
2018-01-21T15:14:43.930Z,90.92
2018-01-21T15:17:12.364Z,90.69
2018-01-21T15:19:40.807Z,90.41
2018-01-21T15:22:09.976Z,89.84
2018-01-21T15:24:38.402Z,90.37
2018-01-21T15:27:07.545Z,90.79
2018-01-21T15:29:35.991Z,90.77
2018-01-21T15:32:04.444Z,90.58
2018-01-21T15:34:33.594Z,89.96
2018-01-21T15:37:01.984Z,89.78
2018-01-21T15:39:30.419Z,89.84
2018-01-21T15:41:58.835Z,89.51
2018-01-21T15:44:27.275Z,89.44
2018-01-21T15:46:55.722Z,89.39
2018-01-21T15:49:24.168Z,89.21
2018-01-21T15:51:52.557Z,89.49
2018-01-21T15:54:21.036Z,89.99
2018-01-21T15:56:49.466Z,90.14
2018-01-21T15:59:18.616Z,90.56
2018-01-21T16:01:47.589Z,90.49
2018-01-21T16:04:15.967Z,90.30
2018-01-21T16:06:44.382Z,90.15
2018-01-21T16:09:12.865Z,90.03
2018-01-21T16:11:41.299Z,89.86
2018-01-21T16:14:09.719Z,89.55
2018-01-21T16:16:38.069Z,89.64
2018-01-21T16:19:06.429Z,89.41
2018-01-21T16:21:34.845Z,89.54
2018-01-21T16:24:03.225Z,88.85
2018-01-21T16:26:31.612Z,88.68
2018-01-21T16:29:00.084Z,89.27
2018-01-21T16:31:28.532Z,89.77
2018-01-21T16:33:56.981Z,90.04
2018-01-21T16:36:28.021Z,90.14
2018-01-21T16:39:01.117Z,89.96
2018-01-21T16:41:29.497Z,89.62
2018-01-21T16:43:57.968Z,89.60
2018-01-21T16:46:26.496Z,89.83
2018-01-21T16:48:54.943Z,89.52
2018-01-21T16:51:24.101Z,89.73
2018-01-21T16:53:52.529Z,90.08
2018-01-21T16:56:21.786Z,90.27
2018-01-21T16:58:50.252Z,90.21
2018-01-21T17:01:18.630Z,90.38
2018-01-21T17:03:46.996Z,90.40
2018-01-21T17:06:15.517Z,90.35
2018-01-21T17:08:43.955Z,90.16
2018-01-21T17:11:12.353Z,90.48
2018-01-21T17:13:40.934Z,90.13
2018-01-21T17:16:09.301Z,89.80
2018-01-21T17:18:37.731Z,89.75
2018-01-21T17:21:06.132Z,89.70
2018-01-21T17:23:35.262Z,89.81
2018-01-21T17:26:03.618Z,89.76
2018-01-21T17:28:32.283Z,89.54
2018-01-21T17:31:01.500Z,89.33
2018-01-21T17:33:29.959Z,89.24
2018-01-21T17:35:59.299Z,90.07
2018-01-21T17:38:27.726Z,89.62
2018-01-21T17:40:56.339Z,88.79
2018-01-21T17:43:24.771Z,88.73
2018-01-21T17:45:53.213Z,88.76
2018-01-21T17:48:21.682Z,88.75
2018-01-21T17:50:50.049Z,88.78
2018-01-21T17:53:19.185Z,89.63
2018-01-21T17:55:47.675Z,89.90
2018-01-21T17:58:16.063Z,90.51
2018-01-21T18:00:44.539Z,90.62
2018-01-21T18:03:13.023Z,90.75
2018-01-21T18:05:41.481Z,90.63
2018-01-21T18:08:09.859Z,90.49
2018-01-21T18:10:38.253Z,90.55
2018-01-21T18:13:06.689Z,90.98
2018-01-21T18:15:35.172Z,90.68
2018-01-21T18:18:04.326Z,90.60
2018-01-21T18:20:32.776Z,90.28
2018-01-21T18:23:01.212Z,90.99
2018-01-21T18:25:29.657Z,90.53
2018-01-21T18:27:58.119Z,90.30
2018-01-21T18:30:26.576Z,90.36
2018-01-21T18:32:55.717Z,90.07
2018-01-21T18:35:24.162Z,90.19
2018-01-21T18:37:52.595Z,89.92
2018-01-21T18:40:21.009Z,89.92
2018-01-21T18:42:49.369Z,89.57
2018-01-21T18:45:17.814Z,89.80
2018-01-21T18:47:46.251Z,89.67
2018-01-21T18:50:15.437Z,89.64
2018-01-21T18:52:44.644Z,89.36
2018-01-21T18:55:13.837Z,89.32
2018-01-21T18:57:42.238Z,89.14
2018-01-21T19:00:10.629Z,88.65
2018-01-21T19:02:38.995Z,88.98
2018-01-21T19:05:07.365Z,89.20
2018-01-21T19:07:35.816Z,89.02
2018-01-21T19:10:04.299Z,89.16
2018-01-21T19:12:32.738Z,89.43
2018-01-21T19:15:01.116Z,90.12
2018-01-21T19:17:29.502Z,90.25
2018-01-21T19:19:57.973Z,90.17
2018-01-21T19:22:27.101Z,90.34
2018-01-21T19:24:55.477Z,89.86
2018-01-21T19:27:23.928Z,90.49
2018-01-21T19:29:52.395Z,90.66
2018-01-21T19:32:22.702Z,90.19
2018-01-21T19:34:51.144Z,89.77
2018-01-21T19:37:19.615Z,89.23
2018-01-21T19:39:48.597Z,89.22
2018-01-21T19:42:22.531Z,89.78
2018-01-21T19:44:52.435Z,90.55
2018-01-21T19:47:20.872Z,90.45
2018-01-21T19:49:49.391Z,90.23
2018-01-21T19:52:17.846Z,89.95
2018-01-21T19:54:46.284Z,90.10
2018-01-21T19:57:14.684Z,90.24
2018-01-21T19:59:43.814Z,89.87
2018-01-21T20:02:12.615Z,89.54
2018-01-21T20:04:40.997Z,89.81
2018-01-21T20:07:09.477Z,90.58
2018-01-21T20:09:37.849Z,90.24
2018-01-21T20:12:06.280Z,90.08
2018-01-21T20:14:35.440Z,90.31
2018-01-21T20:17:03.804Z,90.51
2018-01-21T20:19:32.182Z,90.65
2018-01-21T20:22:00.617Z,90.44
2018-01-21T20:24:29.757Z,91.56
2018-01-21T20:26:58.190Z,92.01
2018-01-21T20:29:27.439Z,92.05
2018-01-21T20:31:55.804Z,91.74
2018-01-21T20:34:24.236Z,91.74
2018-01-21T20:36:52.640Z,91.47
2018-01-21T20:39:21.076Z,91.84
2018-01-21T20:41:49.532Z,91.70
2018-01-21T20:44:17.956Z,91.68
2018-01-21T20:46:46.403Z,91.75
2018-01-21T20:49:14.813Z,91.49
2018-01-21T20:51:48.583Z,91.71
2018-01-21T20:54:22.484Z,91.63
2018-01-21T20:56:50.901Z,91.85
2018-01-21T20:59:20.486Z,91.71
2018-01-21T21:01:48.963Z,91.32
2018-01-21T21:04:17.333Z,91.63
2018-01-21T21:06:45.700Z,91.46
2018-01-21T21:09:14.237Z,91.55
2018-01-21T21:11:42.617Z,91.86
2018-01-21T21:14:11.065Z,91.79
2018-01-21T21:16:39.544Z,92.06
2018-01-21T21:19:07.928Z,92.74
2018-01-21T21:21:36.360Z,93.26
2018-01-21T21:24:05.505Z,93.39
2018-01-21T21:26:33.873Z,93.20
2018-01-21T21:29:02.331Z,93.82
2018-01-21T21:31:30.730Z,94.04
2018-01-21T21:33:59.164Z,94.14
2018-01-21T21:36:28.370Z,93.95
2018-01-21T21:38:56.850Z,94.25
2018-01-21T21:41:25.351Z,94.62
2018-01-21T21:43:53.725Z,94.40
2018-01-21T21:46:22.107Z,94.67
2018-01-21T21:48:50.609Z,94.52
2018-01-21T21:51:19.009Z,94.73
2018-01-21T21:53:47.459Z,94.94
2018-01-21T21:56:15.866Z,94.86
2018-01-21T21:58:44.257Z,94.94
2018-01-21T22:01:12.738Z,94.96
2018-01-21T22:03:41.191Z,94.98
2018-01-21T22:06:09.584Z,94.83
2018-01-21T22:08:38.011Z,94.75
2018-01-21T22:11:06.404Z,94.66
2018-01-21T22:13:34.829Z,94.41
2018-01-21T22:16:03.283Z,94.09
2018-01-21T22:18:31.693Z,94.64
2018-01-21T22:21:00.122Z,94.75
2018-01-21T22:23:28.516Z,94.59
2018-01-21T22:25:56.967Z,94.68
2018-01-21T22:28:26.183Z,94.57
2018-01-21T22:30:54.557Z,94.47
2018-01-21T22:33:23.015Z,94.37
2018-01-21T22:35:52.219Z,94.57
2018-01-21T22:38:20.629Z,94.77
2018-01-21T22:40:49.015Z,94.96
2018-01-21T22:43:17.444Z,94.76
2018-01-21T22:45:46.620Z,94.90
2018-01-21T22:48:15.063Z,94.95
2018-01-21T22:50:43.494Z,94.59
2018-01-21T22:53:11.961Z,94.31
2018-01-21T22:55:40.399Z,94.19
2018-01-21T22:58:08.776Z,94.05
2018-01-21T23:00:37.167Z,94.00
2018-01-21T23:03:05.591Z,94.10
2018-01-21T23:05:34.063Z,94.29
2018-01-21T23:08:02.465Z,94.43
2018-01-21T23:10:30.824Z,94.50
2018-01-21T23:12:59.263Z,94.52
2018-01-21T23:15:27.734Z,94.37
2018-01-21T23:17:56.176Z,94.04
2018-01-21T23:20:43.108Z,93.96
2018-01-21T23:23:12.309Z,93.75
2018-01-21T23:25:40.692Z,94.08
2018-01-21T23:28:09.135Z,94.13
2018-01-21T23:30:37.596Z,93.76
2018-01-21T23:33:05.976Z,93.77
2018-01-21T23:35:34.366Z,94.00
2018-01-21T23:38:02.847Z,94.06
2018-01-21T23:40:31.229Z,93.83
2018-01-21T23:42:59.625Z,93.98
2018-01-21T23:45:28.008Z,93.97
2018-01-21T23:47:56.483Z,94.24
2018-01-21T23:50:25.723Z,94.26
2018-01-21T23:52:54.105Z,93.99
2018-01-21T23:55:22.540Z,93.98
2018-01-21T23:57:50.926Z,93.96
